Time;durP1;ratioP1;P1;durP2;ratioP2;P2;SDS_P1;SDS_P2;PMS_P1;PMS_P2;Temp;Humidity;BMP_temperature;BMP_pressure;BME280_temperature;BME280_humidity;BME280_pressure;Samples;Min_cycle;Max_cycle;Signal;HPM_P1;HPM_P2
2023/10/06 00:05:25;;;;;;;;;;;;;;;18.67;59.98;100683.06;10210505;28;740;-73
2023/10/06 00:10:23;;;;;;;;;;;;;;;18.64;59.87;100686.69;10210797;28;781;-73
2023/10/06 00:15:26;;;;;;;;;;;;;;;18.64;60.06;100689.31;10210113;28;880;-72
2023/10/06 00:20:31;;;;;;;;;;;;;;;18.63;59.99;100687.59;10209905;28;1894;-73
2023/10/06 00:25:27;;;;;;;;;;;;;;;18.62;59.85;100680.56;10209811;28;875;-73
2023/10/06 00:30:25;;;;;;;;;;;;;;;18.63;59.95;100679.69;10210248;28;815;-73
2023/10/06 00:35:30;;;;;;;;;;;;;;;18.61;59.84;100685.00;10209292;28;840;-73
2023/10/06 00:40:26;;;;;;;;;;;;;;;18.61;60.12;100687.63;10209167;28;1914;-73
2023/10/06 00:45:26;;;;;;;;;;;;;;;18.60;60.07;100693.84;10209633;28;860;-73
2023/10/06 00:50:24;;;;;;;;;;;;;;;18.60;59.83;100683.28;10209180;28;1189;-73
2023/10/06 00:55:20;;;;;;;;;;;;;;;18.58;59.93;100671.91;10208680;28;803;-73
2023/10/06 01:00:21;;;;;;;;;;;;;;;18.58;59.88;100674.53;10209198;28;1969;-73
2023/10/06 01:05:17;;;;;;;;;;;;;;;18.57;60.04;100661.38;10208832;28;881;-73
2023/10/06 01:10:17;;;;;;;;;;;;;;;18.56;60.03;100665.78;10207984;28;928;-73
2023/10/06 01:15:16;;;;;;;;;;;;;;;18.55;60.04;100650.88;10208467;28;943;-74
2023/10/06 01:20:17;;;;;;;;;;;;;;;18.54;59.98;100646.50;10208615;28;1945;-73
2023/10/06 01:25:20;;;;;;;;;;;;;;;18.53;60.06;100633.38;10207634;28;848;-73
2023/10/06 01:35:20;;;;;;;;;;;;;;;18.53;60.05;100625.44;10207160;28;956;-73
2023/10/06 01:40:43;;;;;;;;;;;;;;;18.51;59.91;100614.91;10206746;28;1894;-73
2023/10/06 01:45:32;;;;;;;;;;;;;;;18.51;60.06;100624.63;10204352;28;2042;-73
2023/10/06 01:50:28;;;;;;;;;;;;;;;18.50;60.15;100620.25;10274671;28;1177;-73
2023/10/06 01:55:24;;;;;;;;;;;;;;;18.49;59.98;100614.09;10287534;28;891;-73
2023/10/06 02:00:26;;;;;;;;;;;;;;;18.49;60.02;100614.09;10286822;28;1905;-73
2023/10/06 02:05:22;;;;;;;;;;;;;;;18.48;60.21;100620.31;10286821;28;802;-73
2023/10/06 02:10:18;;;;;;;;;;;;;;;18.47;60.06;100617.69;10286463;28;830;-74
2023/10/06 02:15:14;;;;;;;;;;;;;;;18.48;60.17;100622.94;10286375;28;861;-73
2023/10/06 02:25:36;;;;;;;;;;;;;;;18.46;60.16;100618.63;10277416;28;1242;-73
2023/10/06 02:30:36;;;;;;;;;;;;;;;18.46;60.06;100615.97;10285763;28;953;-73
2023/10/06 02:35:34;;;;;;;;;;;;;;;18.45;60.27;100603.72;10285612;28;888;-73
2023/10/06 02:40:36;;;;;;;;;;;;;;;18.44;60.01;100597.53;10285794;28;1894;-73
2023/10/06 02:45:37;;;;;;;;;;;;;;;18.44;60.00;100596.69;10285979;28;817;-73
2023/10/06 02:50:34;;;;;;;;;;;;;;;18.42;60.05;100591.47;10285514;28;1330;-73
2023/10/06 02:55:33;;;;;;;;;;;;;;;18.42;60.15;100583.56;10285583;28;827;-73
2023/10/06 03:00:32;;;;;;;;;;;;;;;18.41;60.22;100589.72;10277140;28;1918;-73
2023/10/06 03:05:39;;;;;;;;;;;;;;;18.40;60.16;100585.38;10284745;28;874;-73
2023/10/06 03:10:42;;;;;;;;;;;;;;;18.39;60.13;100594.19;10284550;28;802;-73
2023/10/06 03:15:45;;;;;;;;;;;;;;;18.39;60.03;100594.19;10284182;28;1206;-73
2023/10/06 03:20:53;;;;;;;;;;;;;;;18.37;60.13;100590.75;10285270;28;1961;-73
2023/10/06 03:25:52;;;;;;;;;;;;;;;18.37;60.19;100586.34;10285050;28;818;-74
2023/10/06 03:30:49;;;;;;;;;;;;;;;18.36;60.07;100587.22;10284249;28;886;-73
2023/10/06 03:35:46;;;;;;;;;;;;;;;18.37;59.92;100601.31;10284425;28;885;-73
2023/10/06 03:41:31;;;;;;;;;;;;;;;18.35;60.05;100603.13;10284591;28;1959;-73
2023/10/06 03:45:58;;;;;;;;;;;;;;;18.33;60.01;100597.88;10271921;28;1297;-73
2023/10/06 03:50:54;;;;;;;;;;;;;;;18.33;60.07;100607.59;10280486;28;1138;-73
2023/10/06 03:55:50;;;;;;;;;;;;;;;18.33;60.02;100599.66;10283797;28;763;-73
2023/10/06 04:00:49;;;;;;;;;;;;;;;18.32;59.99;100597.97;10284676;28;1973;-73
2023/10/06 04:05:45;;;;;;;;;;;;;;;18.32;60.00;100604.09;10284524;28;833;-73
2023/10/06 04:10:42;;;;;;;;;;;;;;;18.30;60.08;100590.06;10290699;28;863;-73
2023/10/06 04:15:38;;;;;;;;;;;;;;;18.29;60.17;100582.22;10291861;28;838;-73
2023/10/06 04:20:34;;;;;;;;;;;;;;;18.27;59.88;100578.78;10291339;28;1961;-73
2023/10/06 04:25:31;;;;;;;;;;;;;;;18.33;59.81;100589.97;10292060;28;889;-73
2023/10/06 04:30:29;;;;;;;;;;;;;;;18.38;59.56;100580.13;10291089;28;928;-73
2023/10/06 04:35:26;;;;;;;;;;;;;;;18.40;59.44;100570.41;10290258;28;881;-73
2023/10/06 04:40:22;;;;;;;;;;;;;;;18.42;59.31;100575.63;10289892;28;1894;-74
2023/10/06 04:45:18;;;;;;;;;;;;;;;18.46;59.48;100564.03;10289934;28;786;-73
2023/10/06 04:50:15;;;;;;;;;;;;;;;18.49;59.25;100556.03;10290643;28;1282;-73
2023/10/06 04:55:13;;;;;;;;;;;;;;;18.53;59.21;100547.09;10289507;28;941;-73
2023/10/06 05:00:19;;;;;;;;;;;;;;;18.60;59.13;100545.09;10290088;28;1914;-73
2023/10/06 05:05:19;;;;;;;;;;;;;;;18.62;58.95;100544.13;10289379;28;771;-73
2023/10/06 05:10:16;;;;;;;;;;;;;;;18.67;58.75;100540.47;10289497;28;820;-74
2023/10/06 05:15:23;;;;;;;;;;;;;;;18.71;58.85;100536.84;10288181;28;981;-73
2023/10/06 05:20:20;;;;;;;;;;;;;;;18.71;58.73;100540.34;10287524;28;1949;-72
2023/10/06 05:25:19;;;;;;;;;;;;;;;18.75;58.49;100541.97;10288401;28;878;-73
2023/10/06 05:30:15;;;;;;;;;;;;;;;18.78;58.54;100533.94;10288276;28;841;-73
2023/10/06 05:35:13;;;;;;;;;;;;;;;18.77;58.61;100534.84;10287404;28;897;-73
2023/10/06 05:40:12;;;;;;;;;;;;;;;18.78;58.73;100525.16;10287714;28;1898;-73
2023/10/06 05:45:15;;;;;;;;;;;;;;;18.82;58.42;100532.06;10287562;28;812;-73
2023/10/06 05:50:11;;;;;;;;;;;;;;;18.83;58.44;100536.41;10278598;28;1224;-73
2023/10/06 05:55:09;;;;;;;;;;;;;;;18.82;58.52;100535.56;10287864;28;830;-73
2023/10/06 06:00:18;;;;;;;;;;;;;;;18.83;58.59;100537.28;10287064;28;1974;-73
2023/10/06 06:05:15;;;;;;;;;;;;;;;18.82;58.54;100546.13;10287778;28;1033;-73
2023/10/06 06:10:15;;;;;;;;;;;;;;;18.86;58.37;100552.16;10286842;28;886;-73
2023/10/06 06:15:11;;;;;;;;;;;;;;;18.87;58.52;100548.63;10285709;28;858;-74
2023/10/06 06:20:14;;;;;;;;;;;;;;;18.89;58.36;100552.06;10286137;28;1923;-73
2023/10/06 06:25:10;;;;;;;;;;;;;;;18.90;58.49;100572.28;10286086;28;910;-73
2023/10/06 06:30:06;;;;;;;;;;;;;;;18.93;58.41;100566.03;10299404;28;1051;-73
2023/10/06 06:35:01;;;;;;;;;;;;;;;18.92;58.33;100569.59;10326538;28;837;-74
2023/10/06 06:39:57;;;;;;;;;;;;;;;18.94;58.39;100570.38;10324874;28;1961;-73
2023/10/06 06:44:53;;;;;;;;;;;;;;;18.94;58.27;100584.47;10325759;28;798;-73
2023/10/06 06:49:49;;;;;;;;;;;;;;;18.98;58.36;100595.78;10325414;28;1375;-72
2023/10/06 06:54:46;;;;;;;;;;;;;;;18.98;58.30;100587.88;10326302;28;888;-74
2023/10/06 06:59:43;;;;;;;;;;;;;;;18.98;58.28;100596.66;10325038;28;1977;-73
2023/10/06 07:04:39;;;;;;;;;;;;;;;18.97;58.34;100594.94;10325923;28;933;-69
2023/10/06 07:09:35;;;;;;;;;;;;;;;18.96;58.26;100589.69;10325210;28;784;-69
2023/10/06 07:14:30;;;;;;;;;;;;;;;18.96;58.21;100585.25;10325003;28;785;-69
2023/10/06 07:19:26;;;;;;;;;;;;;;;18.96;58.10;100585.25;10324972;28;1945;-69
2023/10/06 07:24:24;;;;;;;;;;;;;;;18.97;58.20;100580.88;10325364;28;829;-69
2023/10/06 07:29:20;;;;;;;;;;;;;;;19.00;57.97;100578.97;10324673;28;845;-69
2023/10/06 07:34:16;;;;;;;;;;;;;;;19.00;57.94;100570.19;10325354;28;789;-70
2023/10/06 07:39:20;;;;;;;;;;;;;;;19.00;57.89;100580.75;10324400;28;1899;-69
2023/10/06 07:44:16;;;;;;;;;;;;;;;18.97;57.89;100579.09;10329211;28;882;-69
2023/10/06 07:49:12;;;;;;;;;;;;;;;18.93;58.16;100580.09;10332751;28;1219;-77
2023/10/06 07:54:08;;;;;;;;;;;;;;;18.95;58.06;100577.41;10333125;28;968;-73
2023/10/06 07:59:05;;;;;;;;;;;;;;;18.93;58.06;100558.97;10331037;28;1966;-73
2023/10/06 08:04:01;;;;;;;;;;;;;;;18.90;57.90;100551.16;10331636;28;889;-73
2023/10/06 08:08:57;;;;;;;;;;;;;;;18.90;58.04;100542.38;10332086;28;770;-73
2023/10/06 08:13:54;;;;;;;;;;;;;;;18.90;57.74;100542.38;10331886;28;838;-72
2023/10/06 08:18:52;;;;;;;;;;;;;;;18.92;58.07;100546.69;10331503;28;1909;-72
2023/10/06 08:23:50;;;;;;;;;;;;;;;18.94;58.23;100551.88;10331459;28;909;-72
2023/10/06 08:28:46;;;;;;;;;;;;;;;18.93;58.10;100558.97;10331548;28;845;-72
2023/10/06 08:33:42;;;;;;;;;;;;;;;18.93;58.16;100558.97;10332338;28;948;-72
2023/10/06 08:38:38;;;;;;;;;;;;;;;18.95;58.08;100559.78;10330235;28;906;-72
2023/10/06 08:43:34;;;;;;;;;;;;;;;18.98;57.92;100561.44;10330721;28;1886;-72
2023/10/06 08:48:30;;;;;;;;;;;;;;;18.98;58.09;100564.94;10330800;28;1131;-72
2023/10/06 08:53:26;;;;;;;;;;;;;;;19.00;58.01;100570.19;10330437;28;850;-72
2023/10/06 08:58:26;;;;;;;;;;;;;;;19.00;57.96;100581.59;10330901;28;874;-72
2023/10/06 09:03:22;;;;;;;;;;;;;;;19.01;57.98;100585.97;10329935;28;1906;-72
2023/10/06 09:08:18;;;;;;;;;;;;;;;19.03;57.85;100575.34;10330502;28;862;-72
2023/10/06 09:13:17;;;;;;;;;;;;;;;19.00;57.86;100581.59;10330264;28;873;-72
2023/10/06 09:18:13;;;;;;;;;;;;;;;19.02;57.74;100576.25;10330131;28;884;-72
2023/10/06 09:23:08;;;;;;;;;;;;;;;19.00;57.99;100580.75;10329285;28;1893;-72
2023/10/06 09:28:04;;;;;;;;;;;;;;;18.96;58.05;100574.69;10329067;28;830;-72
2023/10/06 09:33:00;;;;;;;;;;;;;;;18.95;57.92;100572.13;10328913;28;904;-72
2023/10/06 09:37:58;;;;;;;;;;;;;;;18.93;57.92;100574.81;10328111;28;892;-72
2023/10/06 09:42:54;;;;;;;;;;;;;;;18.89;57.69;100567.91;10328346;28;1947;-72
2023/10/06 09:47:50;;;;;;;;;;;;;;;18.89;57.81;100560.00;10328121;28;1431;-72
2023/10/06 09:52:47;;;;;;;;;;;;;;;18.87;57.82;100564.47;10327801;28;904;-72
2023/10/06 09:57:43;;;;;;;;;;;;;;;18.84;57.42;100564.56;10327684;28;978;-68
2023/10/06 10:02:40;;;;;;;;;;;;;;;18.81;57.42;100556.72;10328042;28;1914;-68
2023/10/06 10:07:36;;;;;;;;;;;;;;;18.80;57.29;100550.59;10327440;28;936;-68
2023/10/06 10:12:32;;;;;;;;;;;;;;;18.79;57.40;100548.03;10327273;28;870;-68
2023/10/06 10:17:29;;;;;;;;;;;;;;;18.77;57.48;100540.13;10327118;28;899;-68
2023/10/06 10:22:25;;;;;;;;;;;;;;;18.80;57.40;100525.97;10326619;28;1951;-68
2023/10/06 10:27:22;;;;;;;;;;;;;;;18.80;57.25;100521.53;10327309;28;816;-68
2023/10/06 10:32:22;;;;;;;;;;;;;;;18.78;57.09;100511.94;10325821;28;1133;-68
2023/10/06 10:37:20;;;;;;;;;;;;;;;18.77;57.49;100511.09;10326255;28;775;-71
2023/10/06 10:42:17;;;;;;;;;;;;;;;18.79;57.36;100508.41;10325798;28;1953;-73
2023/10/06 10:47:13;;;;;;;;;;;;;;;18.82;57.25;100518.84;10325138;28;1400;-72
2023/10/06 10:52:09;;;;;;;;;;;;;;;18.80;57.22;100515.41;10326581;28;827;-72
2023/10/06 10:57:05;;;;;;;;;;;;;;;18.76;57.32;100503.25;10326443;28;913;-72
2023/10/06 11:02:01;;;;;;;;;;;;;;;18.80;57.00;100499.56;10326213;28;1906;-72
2023/10/06 11:06:58;;;;;;;;;;;;;;;18.80;57.31;100492.47;10325605;28;901;-72
2023/10/06 11:11:55;;;;;;;;;;;;;;;18.77;57.30;100489.09;10323160;28;1101;-73
2023/10/06 11:16:52;;;;;;;;;;;;;;;18.75;57.33;100485.66;10321367;28;1141;-72
2023/10/06 11:21:48;;;;;;;;;;;;;;;18.76;57.74;100488.25;10323932;28;1889;-72
2023/10/06 11:26:44;;;;;;;;;;;;;;;18.74;57.60;100476.84;10324627;28;776;-72
2023/10/06 11:31:43;;;;;;;;;;;;;;;18.74;57.68;100481.25;10324672;28;931;-72
2023/10/06 11:36:38;;;;;;;;;;;;;;;18.73;57.86;100466.31;10324942;28;846;-72
2023/10/06 11:41:34;;;;;;;;;;;;;;;18.72;57.77;100464.59;10323912;28;1898;-72
2023/10/06 11:46:30;;;;;;;;;;;;;;;18.75;57.30;100456.59;10324587;28;1205;-72
2023/10/06 11:51:28;;;;;;;;;;;;;;;18.75;57.77;100448.69;10325149;28;867;-72
2023/10/06 11:56:23;;;;;;;;;;;;;;;18.74;57.80;100439.00;10323926;28;934;-72
2023/10/06 12:01:19;;;;;;;;;;;;;;;18.73;57.61;100447.81;10323828;28;1901;-72
2023/10/06 12:06:16;;;;;;;;;;;;;;;18.75;57.58;100444.25;10324136;28;924;-72
2023/10/06 12:11:14;;;;;;;;;;;;;;;18.76;57.48;100435.44;10323958;28;842;-72
2023/10/06 12:16:11;;;;;;;;;;;;;;;18.79;57.64;100435.31;10324650;28;810;-72
2023/10/06 12:21:11;;;;;;;;;;;;;;;18.80;57.06;100423.81;10324624;28;1894;-72
2023/10/06 12:26:07;;;;;;;;;;;;;;;18.83;57.15;100425.47;10324440;28;862;-72
2023/10/06 12:31:03;;;;;;;;;;;;;;;18.85;57.43;100422.81;10329016;28;906;-72
2023/10/06 12:35:59;;;;;;;;;;;;;;;18.84;57.02;100411.38;10330843;28;945;-75
2023/10/06 12:40:55;;;;;;;;;;;;;;;18.84;57.34;100408.75;10330657;28;1952;-72
2023/10/06 12:45:51;;;;;;;;;;;;;;;18.84;57.51;100411.38;10329985;28;992;-71
2023/10/06 12:50:47;;;;;;;;;;;;;;;18.84;57.47;100398.16;10329616;28;1394;-73
2023/10/06 12:55:43;;;;;;;;;;;;;;;18.92;57.43;100397.88;10330975;28;857;-72
2023/10/06 13:00:39;;;;;;;;;;;;;;;18.95;57.34;100388.06;10329880;28;1976;-72
2023/10/06 13:05:34;;;;;;;;;;;;;;;19.08;56.92;100377.03;10329836;28;819;-72
2023/10/06 13:10:30;;;;;;;;;;;;;;;19.06;56.96;100371.78;10330377;28;862;-73
2023/10/06 13:15:29;;;;;;;;;;;;;;;19.09;56.98;100369.03;10330054;28;841;-72
2023/10/06 13:20:25;;;;;;;;;;;;;;;19.18;56.89;100367.81;10329676;28;1893;-72
2023/10/06 13:25:21;;;;;;;;;;;;;;;19.21;56.82;100367.69;10329600;28;886;-72
2023/10/06 13:30:19;;;;;;;;;;;;;;;19.29;56.56;100376.19;10328945;28;772;-72
2023/10/06 13:35:19;;;;;;;;;;;;;;;19.49;56.01;100363.03;10328510;28;934;-72
2023/10/06 13:40:15;;;;;;;;;;;;;;;19.50;55.75;100366.53;10328073;28;1886;-73
2023/10/06 13:45:22;;;;;;;;;;;;;;;19.41;56.10;100370.41;10328694;28;878;-73
2023/10/06 13:50:18;;;;;;;;;;;;;;;19.47;55.67;100359.59;10327792;28;1223;-73
2023/10/06 13:55:14;;;;;;;;;;;;;;;19.62;55.46;100354.56;10328355;28;839;-72
2023/10/06 14:00:13;;;;;;;;;;;;;;;19.71;55.29;100346.31;10327538;28;1902;-72
2023/10/06 14:05:09;;;;;;;;;;;;;;;19.75;55.48;100331.16;10327632;28;838;-73
2023/10/06 14:10:12;;;;;;;;;;;;;;;19.58;55.65;100326.56;10327921;28;806;-73
2023/10/06 14:15:21;;;;;;;;;;;;;;;19.49;55.93;100319.84;10326666;28;732;-73
2023/10/06 14:20:23;;;;;;;;;;;;;;;19.44;56.06;100319.16;10327541;28;1886;-73
2023/10/06 14:25:21;;;;;;;;;;;;;;;19.38;55.79;100312.34;10328234;28;818;-73
2023/10/06 14:30:20;;;;;;;;;;;;;;;19.36;55.92;100313.34;10326642;28;905;-73
2023/10/06 14:35:31;;;;;;;;;;;;;;;19.31;55.91;100302.97;10326339;28;938;-72
2023/10/06 14:46:00;;;;;;;;;;;;;;;19.30;56.13;100309.16;10325717;28;707;-73
2023/10/06 14:50:56;;;;;;;;;;;;;;;19.32;56.07;100309.97;10327050;28;1171;-72
2023/10/06 14:55:52;;;;;;;;;;;;;;;19.32;56.10;100307.31;10325938;28;857;-73
2023/10/06 15:00:48;;;;;;;;;;;;;;;19.35;56.22;100295.78;10325035;28;1963;-73
2023/10/06 15:05:45;;;;;;;;;;;;;;;19.38;56.24;100303.56;10325565;28;832;-72
2023/10/06 15:10:41;;;;;;;;;;;;;;;19.63;55.68;100306.06;10321618;28;1133;-73
2023/10/06 15:15:36;;;;;;;;;;;;;;;19.98;54.90;100315.16;10324423;28;1035;-73
2023/10/06 15:20:33;;;;;;;;;;;;;;;20.02;55.21;100297.38;10324583;28;1898;-73
2023/10/06 15:25:30;;;;;;;;;;;;;;;20.02;55.18;100311.47;10325232;28;815;-74
2023/10/06 15:30:27;;;;;;;;;;;;;;;19.95;55.45;100310.00;10325673;28;1145;-73
2023/10/06 15:35:25;;;;;;;;;;;;;;;19.75;55.94;100310.84;10324372;28;1356;-81
2023/10/06 15:40:23;;;;;;;;;;;;;;;19.67;56.09;100315.59;10325598;28;1894;-81
2023/10/06 15:45:19;;;;;;;;;;;;;;;19.67;55.93;100315.59;10325399;28;826;-73
2023/10/06 15:50:15;;;;;;;;;;;;;;;19.64;55.98;100315.72;10325897;28;1417;-73
2023/10/06 15:55:13;;;;;;;;;;;;;;;19.58;56.07;100311.53;10321781;28;1168;-73
2023/10/06 16:00:12;;;;;;;;;;;;;;;19.56;56.20;100308.09;10323936;28;1902;-73
2023/10/06 16:05:09;;;;;;;;;;;;;;;19.54;56.32;100306.44;10328071;28;803;-73
2023/10/06 16:10:15;;;;;;;;;;;;;;;19.55;56.50;100305.53;10331999;28;902;-73
2023/10/06 16:15:11;;;;;;;;;;;;;;;19.54;56.62;100311.72;10332505;28;842;-73
2023/10/06 16:20:09;;;;;;;;;;;;;;;19.51;56.53;100296.84;10332712;28;1985;-69
2023/10/06 16:25:07;;;;;;;;;;;;;;;19.48;56.36;100297.84;10332510;28;822;-72
2023/10/06 16:30:03;;;;;;;;;;;;;;;19.48;56.42;100302.28;10331316;28;831;-72
2023/10/06 16:35:01;;;;;;;;;;;;;;;19.46;56.52;100304.97;10331466;28;901;-72
2023/10/06 16:39:57;;;;;;;;;;;;;;;19.46;56.68;100307.59;10331667;28;1965;-72
2023/10/06 16:44:53;;;;;;;;;;;;;;;19.47;56.44;100304.06;10331504;28;865;-72
2023/10/06 16:49:49;;;;;;;;;;;;;;;19.47;56.57;100305.84;10330666;28;1282;-72
2023/10/06 16:54:45;;;;;;;;;;;;;;;19.47;56.36;100304.06;10331024;28;873;-72
2023/10/06 16:59:41;;;;;;;;;;;;;;;19.46;56.48;100310.25;10330276;28;1918;-72
2023/10/06 17:04:37;;;;;;;;;;;;;;;19.46;56.23;100312.03;10330081;28;1031;-72
2023/10/06 17:09:36;;;;;;;;;;;;;;;19.45;56.45;100299.75;10329875;28;1194;-71
2023/10/06 17:14:32;;;;;;;;;;;;;;;19.45;56.54;100308.53;10330315;28;842;-72
2023/10/06 17:19:28;;;;;;;;;;;;;;;19.46;56.37;100299.69;10330105;28;1951;-72
2023/10/06 17:24:24;;;;;;;;;;;;;;;19.47;56.41;100305.84;10329986;28;787;-72
2023/10/06 17:29:20;;;;;;;;;;;;;;;19.45;56.36;100307.69;10329111;28;1122;-72
2023/10/06 17:34:19;;;;;;;;;;;;;;;19.45;56.34;100303.25;10328928;28;829;-79
2023/10/06 17:39:17;;;;;;;;;;;;;;;19.45;56.27;100292.69;10329176;28;1894;-72
2023/10/06 17:44:13;;;;;;;;;;;;;;;19.46;56.30;100297.03;10327830;28;922;-72
2023/10/06 17:49:09;;;;;;;;;;;;;;;19.48;56.03;100296.97;10328618;28;1114;-73
2023/10/06 17:54:04;;;;;;;;;;;;;;;19.48;56.12;100308.41;10327912;28;818;-72
2023/10/06 17:59:00;;;;;;;;;;;;;;;19.47;56.24;100303.22;10329115;28;1910;-72
2023/10/06 18:03:57;;;;;;;;;;;;;;;19.46;56.28;100312.91;10328329;28;826;-72
2023/10/06 18:08:53;;;;;;;;;;;;;;;19.47;56.36;100308.50;10327387;28;942;-72
2023/10/06 18:13:48;;;;;;;;;;;;;;;19.48;56.26;100310.19;10327578;28;821;-72
2023/10/06 18:18:44;;;;;;;;;;;;;;;19.49;56.12;100310.16;10327666;28;873;-73
2023/10/06 18:23:41;;;;;;;;;;;;;;;19.48;56.32;100303.13;10327706;28;1902;-72
2023/10/06 18:28:37;;;;;;;;;;;;;;;19.49;56.27;100293.41;10326297;28;845;-72
2023/10/06 18:33:33;;;;;;;;;;;;;;;19.46;56.28;100294.38;10326592;28;952;-72
2023/10/06 18:38:29;;;;;;;;;;;;;;;19.47;56.19;100296.13;10326375;28;890;-72
2023/10/06 18:43:25;;;;;;;;;;;;;;;19.48;56.19;100302.28;10326828;28;1926;-72
2023/10/06 18:48:21;;;;;;;;;;;;;;;19.51;56.27;100306.56;10326129;28;1330;-73
2023/10/06 18:53:16;;;;;;;;;;;;;;;19.49;56.21;100299.56;10324569;28;865;-73
2023/10/06 18:58:14;;;;;;;;;;;;;;;19.49;56.20;100307.50;10324325;28;905;-73
2023/10/06 19:03:09;;;;;;;;;;;;;;;19.50;56.08;100313.66;10324547;28;1910;-72
2023/10/06 19:08:07;;;;;;;;;;;;;;;19.49;56.24;100315.44;10324859;28;774;-73
2023/10/06 19:13:03;;;;;;;;;;;;;;;19.52;56.11;100316.22;10323775;28;827;-73
2023/10/06 19:17:59;;;;;;;;;;;;;;;19.51;56.13;100311.84;10323661;28;772;-73
2023/10/06 19:22:55;;;;;;;;;;;;;;;19.51;56.31;100303.94;10324140;28;1901;-73
2023/10/06 19:27:51;;;;;;;;;;;;;;;19.51;56.33;100311.84;10323468;28;1020;-73
2023/10/06 19:32:47;;;;;;;;;;;;;;;19.52;55.95;100310.94;10323251;28;795;-73
2023/10/06 19:37:44;;;;;;;;;;;;;;;19.53;56.16;100320.59;10323659;28;851;-73
2023/10/06 19:42:41;;;;;;;;;;;;;;;19.51;56.21;100306.56;10330233;28;1902;-73
2023/10/06 19:47:37;;;;;;;;;;;;;;;19.48;56.32;100312.84;10291596;28;1114136;-73
2023/10/06 19:52:34;;;;;;;;;;;;;;;19.46;56.28;100315.53;10333777;28;928;-73
2023/10/06 19:57:30;;;;;;;;;;;;;;;19.45;56.25;100318.25;10333279;28;863;-73
2023/10/06 20:02:26;;;;;;;;;;;;;;;19.43;56.30;100313.03;10332333;28;1914;-73
2023/10/06 20:07:23;;;;;;;;;;;;;;;19.40;56.32;100314.94;10332397;28;846;-73
2023/10/06 20:12:18;;;;;;;;;;;;;;;19.37;56.38;100310.66;10331883;28;786;-73
2023/10/06 20:17:14;;;;;;;;;;;;;;;19.35;56.50;100304.56;10332862;28;915;-73
2023/10/06 20:22:10;;;;;;;;;;;;;;;19.33;56.38;100301.09;10332445;28;1965;-73
2023/10/06 20:27:06;;;;;;;;;;;;;;;19.32;56.31;100301.19;10332151;28;1128;-73
2023/10/06 20:32:07;;;;;;;;;;;;;;;19.31;56.55;100310.03;10331409;28;854;-73
2023/10/06 20:37:03;;;;;;;;;;;;;;;19.30;56.54;100309.16;10331110;28;947;-72
2023/10/06 20:41:59;;;;;;;;;;;;;;;19.29;56.45;100311.88;10331294;28;1961;-73
2023/10/06 20:46:55;;;;;;;;;;;;;;;19.28;56.37;100311.00;10331219;28;1100;-73
2023/10/06 20:51:51;;;;;;;;;;;;;;;19.25;56.67;100308.50;10330310;28;885;-73
2023/10/06 20:56:47;;;;;;;;;;;;;;;19.24;56.50;100314.72;10313816;28;827;-73
2023/10/06 21:01:42;;;;;;;;;;;;;;;19.23;56.59;100318.25;10330583;28;1913;-73
2023/10/06 21:06:39;;;;;;;;;;;;;;;19.22;56.55;100321.84;10330885;28;822;-73
2023/10/06 21:11:37;;;;;;;;;;;;;;;19.21;56.68;100320.97;10330256;28;866;-73
2023/10/06 21:16:33;;;;;;;;;;;;;;;19.18;56.73;100307.91;10330267;28;843;-73
2023/10/06 21:21:28;;;;;;;;;;;;;;;19.18;56.57;100322.91;10329474;28;1906;-73
2023/10/06 21:26:24;;;;;;;;;;;;;;;19.17;56.70;100337.00;10329938;28;996;-73
2023/10/06 21:31:20;;;;;;;;;;;;;;;19.16;56.60;100335.31;10328564;28;794;-73
2023/10/06 21:36:18;;;;;;;;;;;;;;;19.14;56.87;100326.56;10329556;28;790;-73
2023/10/06 21:41:14;;;;;;;;;;;;;;;19.14;56.79;100331.84;10328411;28;1957;-73
2023/10/06 21:46:11;;;;;;;;;;;;;;;19.15;57.00;100328.28;10328125;28;894;-73
2023/10/06 21:51:07;;;;;;;;;;;;;;;19.14;56.88;100323.94;10328060;28;1491;-73
2023/10/06 21:56:03;;;;;;;;;;;;;;;19.11;56.82;100327.56;10328115;28;910;-73
2023/10/06 22:01:00;;;;;;;;;;;;;;;19.11;57.13;100327.56;10327034;28;1972;-73
2023/10/06 22:05:56;;;;;;;;;;;;;;;19.10;57.27;100319.66;10327057;28;1374;-73
2023/10/06 22:10:55;;;;;;;;;;;;;;;19.09;57.11;100315.31;10327566;28;758;-73
2023/10/06 22:15:51;;;;;;;;;;;;;;;19.07;57.01;100317.16;10327163;28;888;-73
2023/10/06 22:20:47;;;;;;;;;;;;;;;19.07;57.10;100319.78;10327612;28;1953;-73
2023/10/06 22:25:44;;;;;;;;;;;;;;;19.03;57.10;100309.34;10327783;28;881;-73
2023/10/06 22:30:40;;;;;;;;;;;;;;;19.02;57.22;100302.38;10327462;28;879;-73
2023/10/06 22:35:36;;;;;;;;;;;;;;;19.00;57.30;100290.13;10326437;28;966;-73
2023/10/06 22:40:33;;;;;;;;;;;;;;;18.97;57.16;100299.03;10326372;28;1951;-73
2023/10/06 22:45:29;;;;;;;;;;;;;;;18.97;57.26;100298.19;10326703;28;874;-73
2023/10/06 22:50:25;;;;;;;;;;;;;;;18.98;57.44;100286.69;10327079;28;1176;-73
2023/10/06 22:55:21;;;;;;;;;;;;;;;18.95;57.36;100289.47;10326053;28;771;-73
2023/10/06 23:00:17;;;;;;;;;;;;;;;18.94;57.32;100280.69;10326287;28;1906;-73
2023/10/06 23:05:14;;;;;;;;;;;;;;;18.91;57.48;100254.34;10325722;28;870;-73
2023/10/06 23:10:14;;;;;;;;;;;;;;;18.91;57.32;100262.28;10325665;28;839;-73
2023/10/06 23:15:10;;;;;;;;;;;;;;;18.89;57.46;100250.06;10324538;28;1530;-73
2023/10/06 23:20:14;;;;;;;;;;;;;;;18.89;57.44;100250.06;10325273;28;1889;-72
2023/10/06 23:25:12;;;;;;;;;;;;;;;18.90;57.41;100247.38;10325606;28;911;-72
2023/10/06 23:30:10;;;;;;;;;;;;;;;18.89;57.54;100242.13;10325070;28;862;-72
2023/10/06 23:35:08;;;;;;;;;;;;;;;18.86;57.47;100248.41;10325974;28;897;-73
2023/10/06 23:40:12;;;;;;;;;;;;;;;18.86;57.41;100268.66;10324874;28;1893;-73
2023/10/06 23:45:14;;;;;;;;;;;;;;;18.83;57.31;100254.66;10325013;28;841;-73
2023/10/06 23:50:14;;;;;;;;;;;;;;;18.83;57.43;100253.81;10325565;28;1069;-73
2023/10/06 23:55:14;;;;;;;;;;;;;;;18.81;57.34;100237.16;10325202;28;881;-72
